sensor_id;sensor_type;location;lat;lon;timestamp;P1;durP1;ratioP1;P2;durP2;ratioP2
10096;SDS011;5087;42.662;23.466;2024-02-26T00:02:02;0.40;;;0.40;;
10096;SDS011;5087;42.662;23.466;2024-02-26T00:04:30;0.40;;;0.40;;
10096;SDS011;5087;42.662;23.466;2024-02-26T00:06:56;0.50;;;0.50;;
10096;SDS011;5087;42.662;23.466;2024-02-26T00:09:23;0.40;;;0.40;;
10096;SDS011;5087;42.662;23.466;2024-02-26T00:11:50;0.50;;;0.50;;
10096;SDS011;5087;42.662;23.466;2024-02-26T00:14:17;0.50;;;0.50;;
10096;SDS011;5087;42.662;23.466;2024-02-26T00:16:46;0.40;;;0.40;;
10096;SDS011;5087;42.662;23.466;2024-02-26T00:19:13;0.50;;;0.50;;
10096;SDS011;5087;42.662;23.466;2024-02-26T00:21:40;0.47;;;0.47;;
10096;SDS011;5087;42.662;23.466;2024-02-26T00:24:07;0.57;;;0.57;;
10096;SDS011;5087;42.662;23.466;2024-02-26T00:26:34;0.50;;;0.50;;
10096;SDS011;5087;42.662;23.466;2024-02-26T00:29:00;0.60;;;0.60;;
10096;SDS011;5087;42.662;23.466;2024-02-26T00:31:27;0.53;;;0.53;;
10096;SDS011;5087;42.662;23.466;2024-02-26T00:33:56;0.60;;;0.60;;
10096;SDS011;5087;42.662;23.466;2024-02-26T00:36:26;0.50;;;0.50;;
10096;SDS011;5087;42.662;23.466;2024-02-26T00:38:53;0.53;;;0.53;;
10096;SDS011;5087;42.662;23.466;2024-02-26T00:41:20;0.50;;;0.50;;
10096;SDS011;5087;42.662;23.466;2024-02-26T00:43:49;0.50;;;0.50;;
10096;SDS011;5087;42.662;23.466;2024-02-26T00:46:16;0.40;;;0.40;;
10096;SDS011;5087;42.662;23.466;2024-02-26T00:48:43;0.30;;;0.30;;
10096;SDS011;5087;42.662;23.466;2024-02-26T00:51:12;0.30;;;0.30;;
10096;SDS011;5087;42.662;23.466;2024-02-26T00:53:39;0.30;;;0.30;;
10096;SDS011;5087;42.662;23.466;2024-02-26T00:56:06;0.30;;;0.30;;
10096;SDS011;5087;42.662;23.466;2024-02-26T00:58:33;0.30;;;0.30;;
10096;SDS011;5087;42.662;23.466;2024-02-26T01:01:00;0.30;;;0.30;;
10096;SDS011;5087;42.662;23.466;2024-02-26T01:03:28;0.30;;;0.30;;
10096;SDS011;5087;42.662;23.466;2024-02-26T01:05:55;0.30;;;0.30;;
10096;SDS011;5087;42.662;23.466;2024-02-26T01:08:24;0.20;;;0.20;;
10096;SDS011;5087;42.662;23.466;2024-02-26T01:10:51;0.20;;;0.20;;
10096;SDS011;5087;42.662;23.466;2024-02-26T01:13:18;0.20;;;0.20;;
10096;SDS011;5087;42.662;23.466;2024-02-26T01:15:45;0.20;;;0.20;;
10096;SDS011;5087;42.662;23.466;2024-02-26T01:18:12;0.20;;;0.20;;
10096;SDS011;5087;42.662;23.466;2024-02-26T01:20:39;0.30;;;0.30;;
10096;SDS011;5087;42.662;23.466;2024-02-26T01:23:06;0.40;;;0.40;;
10096;SDS011;5087;42.662;23.466;2024-02-26T01:25:35;0.30;;;0.30;;
10096;SDS011;5087;42.662;23.466;2024-02-26T01:28:02;0.30;;;0.30;;
10096;SDS011;5087;42.662;23.466;2024-02-26T01:30:29;0.33;;;0.33;;
10096;SDS011;5087;42.662;23.466;2024-02-26T01:32:56;0.40;;;0.40;;
10096;SDS011;5087;42.662;23.466;2024-02-26T01:35:23;0.20;;;0.20;;
10096;SDS011;5087;42.662;23.466;2024-02-26T01:37:50;0.30;;;0.30;;
10096;SDS011;5087;42.662;23.466;2024-02-26T01:40:17;0.30;;;0.30;;
10096;SDS011;5087;42.662;23.466;2024-02-26T01:42:48;0.30;;;0.30;;
10096;SDS011;5087;42.662;23.466;2024-02-26T01:45:16;0.20;;;0.20;;
10096;SDS011;5087;42.662;23.466;2024-02-26T01:47:49;0.50;;;0.50;;
10096;SDS011;5087;42.662;23.466;2024-02-26T01:50:24;0.70;;;0.70;;
10096;SDS011;5087;42.662;23.466;2024-02-26T01:52:51;0.60;;;0.60;;
10096;SDS011;5087;42.662;23.466;2024-02-26T01:55:19;0.63;;;0.63;;
10096;SDS011;5087;42.662;23.466;2024-02-26T01:57:48;0.60;;;0.60;;
10096;SDS011;5087;42.662;23.466;2024-02-26T02:00:19;0.70;;;0.70;;
10096;SDS011;5087;42.662;23.466;2024-02-26T02:02:46;0.70;;;0.70;;
10096;SDS011;5087;42.662;23.466;2024-02-26T02:05:14;0.80;;;0.80;;
10096;SDS011;5087;42.662;23.466;2024-02-26T02:07:52;0.70;;;0.70;;
10096;SDS011;5087;42.662;23.466;2024-02-26T02:10:19;0.70;;;0.70;;
10096;SDS011;5087;42.662;23.466;2024-02-26T02:12:50;0.70;;;0.70;;
10096;SDS011;5087;42.662;23.466;2024-02-26T02:15:17;0.60;;;0.60;;
10096;SDS011;5087;42.662;23.466;2024-02-26T02:17:49;0.60;;;0.60;;
10096;SDS011;5087;42.662;23.466;2024-02-26T02:20:17;0.60;;;0.60;;
10096;SDS011;5087;42.662;23.466;2024-02-26T02:22:46;0.50;;;0.50;;
10096;SDS011;5087;42.662;23.466;2024-02-26T02:25:13;0.60;;;0.60;;
10096;SDS011;5087;42.662;23.466;2024-02-26T02:27:40;0.70;;;0.70;;
10096;SDS011;5087;42.662;23.466;2024-02-26T02:30:09;0.60;;;0.60;;
10096;SDS011;5087;42.662;23.466;2024-02-26T02:32:36;0.70;;;0.70;;
10096;SDS011;5087;42.662;23.466;2024-02-26T02:35:04;0.60;;;0.60;;
10096;SDS011;5087;42.662;23.466;2024-02-26T02:37:32;0.60;;;0.60;;
10096;SDS011;5087;42.662;23.466;2024-02-26T02:40:01;0.57;;;0.57;;
10096;SDS011;5087;42.662;23.466;2024-02-26T02:42:28;0.60;;;0.60;;
10096;SDS011;5087;42.662;23.466;2024-02-26T02:44:55;0.60;;;0.60;;
10096;SDS011;5087;42.662;23.466;2024-02-26T02:47:22;0.80;;;0.80;;
10096;SDS011;5087;42.662;23.466;2024-02-26T02:49:49;0.70;;;0.70;;
10096;SDS011;5087;42.662;23.466;2024-02-26T02:52:16;0.70;;;0.70;;
10096;SDS011;5087;42.662;23.466;2024-02-26T02:54:43;0.80;;;0.80;;
10096;SDS011;5087;42.662;23.466;2024-02-26T02:57:14;0.70;;;0.70;;
10096;SDS011;5087;42.662;23.466;2024-02-26T02:59:40;0.60;;;0.60;;
10096;SDS011;5087;42.662;23.466;2024-02-26T03:02:07;0.70;;;0.70;;
10096;SDS011;5087;42.662;23.466;2024-02-26T03:04:35;0.60;;;0.60;;
10096;SDS011;5087;42.662;23.466;2024-02-26T03:07:01;0.30;;;0.30;;
10096;SDS011;5087;42.662;23.466;2024-02-26T03:09:28;0.40;;;0.40;;
10096;SDS011;5087;42.662;23.466;2024-02-26T03:11:55;0.40;;;0.40;;
10096;SDS011;5087;42.662;23.466;2024-02-26T03:14:23;0.40;;;0.40;;
10096;SDS011;5087;42.662;23.466;2024-02-26T03:16:52;0.50;;;0.50;;
10096;SDS011;5087;42.662;23.466;2024-02-26T03:19:19;0.40;;;0.40;;
10096;SDS011;5087;42.662;23.466;2024-02-26T03:21:46;0.40;;;0.40;;
10096;SDS011;5087;42.662;23.466;2024-02-26T03:24:13;0.50;;;0.50;;
10096;SDS011;5087;42.662;23.466;2024-02-26T03:26:40;0.30;;;0.30;;
10096;SDS011;5087;42.662;23.466;2024-02-26T03:29:08;0.30;;;0.30;;
10096;SDS011;5087;42.662;23.466;2024-02-26T03:31:38;0.20;;;0.20;;
10096;SDS011;5087;42.662;23.466;2024-02-26T03:34:05;0.30;;;0.30;;
10096;SDS011;5087;42.662;23.466;2024-02-26T03:36:31;0.20;;;0.20;;
10096;SDS011;5087;42.662;23.466;2024-02-26T03:38:59;0.30;;;0.30;;
10096;SDS011;5087;42.662;23.466;2024-02-26T03:41:27;0.30;;;0.30;;
10096;SDS011;5087;42.662;23.466;2024-02-26T03:43:54;0.20;;;0.20;;
10096;SDS011;5087;42.662;23.466;2024-02-26T03:46:21;0.20;;;0.20;;
10096;SDS011;5087;42.662;23.466;2024-02-26T03:48:50;0.20;;;0.20;;
10096;SDS011;5087;42.662;23.466;2024-02-26T03:51:17;0.20;;;0.20;;
10096;SDS011;5087;42.662;23.466;2024-02-26T03:53:44;0.20;;;0.20;;
10096;SDS011;5087;42.662;23.466;2024-02-26T03:56:11;0.30;;;0.30;;
10096;SDS011;5087;42.662;23.466;2024-02-26T03:58:38;0.30;;;0.30;;
10096;SDS011;5087;42.662;23.466;2024-02-26T04:01:15;0.30;;;0.30;;
10096;SDS011;5087;42.662;23.466;2024-02-26T04:03:44;0.20;;;0.20;;
10096;SDS011;5087;42.662;23.466;2024-02-26T04:06:13;0.30;;;0.30;;
10096;SDS011;5087;42.662;23.466;2024-02-26T04:08:40;0.20;;;0.20;;
10096;SDS011;5087;42.662;23.466;2024-02-26T04:11:07;0.30;;;0.30;;
10096;SDS011;5087;42.662;23.466;2024-02-26T04:13:34;0.30;;;0.30;;
10096;SDS011;5087;42.662;23.466;2024-02-26T04:16:03;0.30;;;0.30;;
10096;SDS011;5087;42.662;23.466;2024-02-26T04:18:31;0.30;;;0.30;;
10096;SDS011;5087;42.662;23.466;2024-02-26T04:20:57;0.40;;;0.40;;
10096;SDS011;5087;42.662;23.466;2024-02-26T04:23:26;0.30;;;0.30;;
10096;SDS011;5087;42.662;23.466;2024-02-26T04:25:53;0.20;;;0.20;;
10096;SDS011;5087;42.662;23.466;2024-02-26T04:28:23;0.20;;;0.20;;
10096;SDS011;5087;42.662;23.466;2024-02-26T04:30:54;0.20;;;0.20;;
10096;SDS011;5087;42.662;23.466;2024-02-26T04:33:22;0.20;;;0.20;;
10096;SDS011;5087;42.662;23.466;2024-02-26T04:35:49;0.20;;;0.20;;
10096;SDS011;5087;42.662;23.466;2024-02-26T04:38:19;0.20;;;0.20;;
10096;SDS011;5087;42.662;23.466;2024-02-26T04:40:47;0.20;;;0.20;;
10096;SDS011;5087;42.662;23.466;2024-02-26T04:43:14;0.30;;;0.30;;
10096;SDS011;5087;42.662;23.466;2024-02-26T04:45:44;0.30;;;0.30;;
10096;SDS011;5087;42.662;23.466;2024-02-26T04:48:11;0.20;;;0.20;;
10096;SDS011;5087;42.662;23.466;2024-02-26T04:50:38;0.20;;;0.20;;
10096;SDS011;5087;42.662;23.466;2024-02-26T04:53:06;0.30;;;0.30;;
10096;SDS011;5087;42.662;23.466;2024-02-26T04:55:35;0.30;;;0.30;;
10096;SDS011;5087;42.662;23.466;2024-02-26T04:58:05;0.20;;;0.20;;
10096;SDS011;5087;42.662;23.466;2024-02-26T05:00:33;0.20;;;0.20;;
10096;SDS011;5087;42.662;23.466;2024-02-26T05:03:00;0.20;;;0.20;;
10096;SDS011;5087;42.662;23.466;2024-02-26T05:05:28;0.10;;;0.10;;
10096;SDS011;5087;42.662;23.466;2024-02-26T05:07:55;0.10;;;0.10;;
10096;SDS011;5087;42.662;23.466;2024-02-26T05:10:21;0.00;;;0.00;;
10096;SDS011;5087;42.662;23.466;2024-02-26T05:12:48;0.10;;;0.10;;
10096;SDS011;5087;42.662;23.466;2024-02-26T05:15:17;0.10;;;0.10;;
10096;SDS011;5087;42.662;23.466;2024-02-26T05:17:47;0.10;;;0.10;;
10096;SDS011;5087;42.662;23.466;2024-02-26T05:20:14;0.10;;;0.10;;
10096;SDS011;5087;42.662;23.466;2024-02-26T05:22:49;0.10;;;0.10;;
10096;SDS011;5087;42.662;23.466;2024-02-26T05:25:18;0.10;;;0.10;;
10096;SDS011;5087;42.662;23.466;2024-02-26T05:27:46;0.20;;;0.20;;
10096;SDS011;5087;42.662;23.466;2024-02-26T05:30:15;0.10;;;0.10;;
10096;SDS011;5087;42.662;23.466;2024-02-26T05:32:55;0.10;;;0.10;;
10096;SDS011;5087;42.662;23.466;2024-02-26T05:35:22;0.10;;;0.10;;
10096;SDS011;5087;42.662;23.466;2024-02-26T05:37:50;0.07;;;0.07;;
10096;SDS011;5087;42.662;23.466;2024-02-26T05:40:19;0.10;;;0.10;;
10096;SDS011;5087;42.662;23.466;2024-02-26T05:42:46;0.10;;;0.10;;
10096;SDS011;5087;42.662;23.466;2024-02-26T05:45:14;0.10;;;0.10;;
10096;SDS011;5087;42.662;23.466;2024-02-26T05:47:42;0.10;;;0.10;;
10096;SDS011;5087;42.662;23.466;2024-02-26T05:50:12;0.10;;;0.10;;
10096;SDS011;5087;42.662;23.466;2024-02-26T05:52:40;0.20;;;0.20;;
10096;SDS011;5087;42.662;23.466;2024-02-26T05:55:12;0.20;;;0.20;;
10096;SDS011;5087;42.662;23.466;2024-02-26T05:57:41;0.20;;;0.20;;
10096;SDS011;5087;42.662;23.466;2024-02-26T06:00:14;0.20;;;0.20;;
10096;SDS011;5087;42.662;23.466;2024-02-26T06:02:46;0.20;;;0.20;;
10096;SDS011;5087;42.662;23.466;2024-02-26T06:05:14;0.20;;;0.20;;
10096;SDS011;5087;42.662;23.466;2024-02-26T06:07:41;0.20;;;0.20;;
10096;SDS011;5087;42.662;23.466;2024-02-26T06:10:11;0.20;;;0.20;;
10096;SDS011;5087;42.662;23.466;2024-02-26T06:12:39;0.30;;;0.30;;
10096;SDS011;5087;42.662;23.466;2024-02-26T06:15:06;0.23;;;0.23;;
10096;SDS011;5087;42.662;23.466;2024-02-26T06:17:33;0.20;;;0.20;;
10096;SDS011;5087;42.662;23.466;2024-02-26T06:20:01;0.40;;;0.40;;
10096;SDS011;5087;42.662;23.466;2024-02-26T06:22:31;0.30;;;0.30;;
10096;SDS011;5087;42.662;23.466;2024-02-26T06:24:59;0.30;;;0.30;;
10096;SDS011;5087;42.662;23.466;2024-02-26T06:27:26;0.20;;;0.20;;
10096;SDS011;5087;42.662;23.466;2024-02-26T06:29:53;0.20;;;0.20;;
10096;SDS011;5087;42.662;23.466;2024-02-26T06:32:21;0.20;;;0.20;;
10096;SDS011;5087;42.662;23.466;2024-02-26T06:34:48;0.30;;;0.30;;
10096;SDS011;5087;42.662;23.466;2024-02-26T06:37:15;0.20;;;0.20;;
10096;SDS011;5087;42.662;23.466;2024-02-26T06:39:48;0.20;;;0.20;;
10096;SDS011;5087;42.662;23.466;2024-02-26T06:42:26;0.20;;;0.20;;
10096;SDS011;5087;42.662;23.466;2024-02-26T06:44:55;0.30;;;0.30;;
10096;SDS011;5087;42.662;23.466;2024-02-26T06:47:24;0.30;;;0.30;;
10096;SDS011;5087;42.662;23.466;2024-02-26T06:49:51;0.30;;;0.30;;
10096;SDS011;5087;42.662;23.466;2024-02-26T06:52:18;0.40;;;0.40;;
10096;SDS011;5087;42.662;23.466;2024-02-26T06:54:46;0.40;;;0.40;;
10096;SDS011;5087;42.662;23.466;2024-02-26T06:57:16;0.30;;;0.30;;
10096;SDS011;5087;42.662;23.466;2024-02-26T06:59:44;0.30;;;0.30;;
10096;SDS011;5087;42.662;23.466;2024-02-26T07:02:12;0.30;;;0.30;;
10096;SDS011;5087;42.662;23.466;2024-02-26T07:04:39;0.30;;;0.30;;
10096;SDS011;5087;42.662;23.466;2024-02-26T07:07:07;0.30;;;0.30;;
10096;SDS011;5087;42.662;23.466;2024-02-26T07:09:36;0.30;;;0.30;;
10096;SDS011;5087;42.662;23.466;2024-02-26T07:12:05;0.30;;;0.30;;
10096;SDS011;5087;42.662;23.466;2024-02-26T07:14:33;0.30;;;0.30;;
10096;SDS011;5087;42.662;23.466;2024-02-26T07:16:59;0.40;;;0.40;;
10096;SDS011;5087;42.662;23.466;2024-02-26T07:19:27;0.30;;;0.30;;
10096;SDS011;5087;42.662;23.466;2024-02-26T07:21:54;0.40;;;0.40;;
10096;SDS011;5087;42.662;23.466;2024-02-26T07:24:21;0.60;;;0.60;;
10096;SDS011;5087;42.662;23.466;2024-02-26T07:26:48;0.60;;;0.60;;
10096;SDS011;5087;42.662;23.466;2024-02-26T07:29:19;0.60;;;0.60;;
10096;SDS011;5087;42.662;23.466;2024-02-26T07:31:46;0.90;;;0.90;;
10096;SDS011;5087;42.662;23.466;2024-02-26T07:34:13;0.90;;;0.90;;
10096;SDS011;5087;42.662;23.466;2024-02-26T07:36:40;0.90;;;0.90;;
10096;SDS011;5087;42.662;23.466;2024-02-26T07:39:07;1.30;;;1.30;;
10096;SDS011;5087;42.662;23.466;2024-02-26T07:41:35;1.20;;;1.20;;
10096;SDS011;5087;42.662;23.466;2024-02-26T07:44:03;1.30;;;1.30;;
10096;SDS011;5087;42.662;23.466;2024-02-26T07:46:33;1.70;;;1.70;;
10096;SDS011;5087;42.662;23.466;2024-02-26T07:49:00;1.80;;;1.80;;
10096;SDS011;5087;42.662;23.466;2024-02-26T07:51:27;1.70;;;1.70;;
10096;SDS011;5087;42.662;23.466;2024-02-26T07:53:55;1.60;;;1.60;;
10096;SDS011;5087;42.662;23.466;2024-02-26T07:56:22;1.60;;;1.60;;
10096;SDS011;5087;42.662;23.466;2024-02-26T07:58:56;2.00;;;2.00;;
10096;SDS011;5087;42.662;23.466;2024-02-26T08:01:23;2.27;;;2.27;;
10096;SDS011;5087;42.662;23.466;2024-02-26T08:03:53;2.70;;;2.70;;
10096;SDS011;5087;42.662;23.466;2024-02-26T08:06:21;3.00;;;3.00;;
10096;SDS011;5087;42.662;23.466;2024-02-26T08:08:48;3.37;;;3.37;;
10096;SDS011;5087;42.662;23.466;2024-02-26T08:11:17;3.67;;;3.67;;
10096;SDS011;5087;42.662;23.466;2024-02-26T08:13:50;2.90;;;2.90;;
10096;SDS011;5087;42.662;23.466;2024-02-26T08:16:17;2.90;;;2.90;;
10096;SDS011;5087;42.662;23.466;2024-02-26T08:18:44;2.53;;;2.53;;
10096;SDS011;5087;42.662;23.466;2024-02-26T08:21:20;2.50;;;2.50;;
10096;SDS011;5087;42.662;23.466;2024-02-26T08:23:52;2.60;;;2.60;;
10096;SDS011;5087;42.662;23.466;2024-02-26T08:26:20;2.67;;;2.67;;
10096;SDS011;5087;42.662;23.466;2024-02-26T08:28:47;2.17;;;2.17;;
10096;SDS011;5087;42.662;23.466;2024-02-26T08:31:19;1.90;;;1.90;;
10096;SDS011;5087;42.662;23.466;2024-02-26T08:33:46;2.00;;;2.00;;
10096;SDS011;5087;42.662;23.466;2024-02-26T08:36:13;2.30;;;2.30;;
10096;SDS011;5087;42.662;23.466;2024-02-26T08:38:44;2.60;;;2.60;;
10096;SDS011;5087;42.662;23.466;2024-02-26T08:41:11;2.60;;;2.60;;
10096;SDS011;5087;42.662;23.466;2024-02-26T08:43:38;2.73;;;2.73;;
10096;SDS011;5087;42.662;23.466;2024-02-26T08:46:08;2.47;;;2.47;;
10096;SDS011;5087;42.662;23.466;2024-02-26T08:48:35;2.60;;;2.60;;
10096;SDS011;5087;42.662;23.466;2024-02-26T08:51:04;2.73;;;2.73;;
10096;SDS011;5087;42.662;23.466;2024-02-26T08:53:31;2.80;;;2.80;;
10096;SDS011;5087;42.662;23.466;2024-02-26T08:56:03;2.83;;;2.83;;
10096;SDS011;5087;42.662;23.466;2024-02-26T08:58:30;2.90;;;2.90;;
10096;SDS011;5087;42.662;23.466;2024-02-26T09:01:01;3.30;;;3.30;;
10096;SDS011;5087;42.662;23.466;2024-02-26T09:03:28;3.40;;;3.40;;
10096;SDS011;5087;42.662;23.466;2024-02-26T09:05:56;3.57;;;3.57;;
10096;SDS011;5087;42.662;23.466;2024-02-26T09:08:24;3.60;;;3.60;;
10096;SDS011;5087;42.662;23.466;2024-02-26T09:10:51;3.50;;;3.50;;
10096;SDS011;5087;42.662;23.466;2024-02-26T09:13:20;3.50;;;3.50;;
10096;SDS011;5087;42.662;23.466;2024-02-26T09:15:47;3.30;;;3.30;;
10096;SDS011;5087;42.662;23.466;2024-02-26T09:18:13;3.30;;;3.30;;
10096;SDS011;5087;42.662;23.466;2024-02-26T09:20:41;3.50;;;3.50;;
10096;SDS011;5087;42.662;23.466;2024-02-26T09:23:10;3.70;;;3.70;;
10096;SDS011;5087;42.662;23.466;2024-02-26T09:25:39;3.70;;;3.70;;
10096;SDS011;5087;42.662;23.466;2024-02-26T09:28:06;3.80;;;3.80;;
10096;SDS011;5087;42.662;23.466;2024-02-26T09:30:35;3.63;;;3.63;;
10096;SDS011;5087;42.662;23.466;2024-02-26T09:33:02;3.90;;;3.90;;
10096;SDS011;5087;42.662;23.466;2024-02-26T09:35:30;3.90;;;3.90;;
10096;SDS011;5087;42.662;23.466;2024-02-26T09:37:57;3.43;;;3.43;;
10096;SDS011;5087;42.662;23.466;2024-02-26T09:40:25;3.60;;;3.60;;
10096;SDS011;5087;42.662;23.466;2024-02-26T09:42:53;3.70;;;3.70;;
10096;SDS011;5087;42.662;23.466;2024-02-26T09:45:25;3.77;;;3.77;;
10096;SDS011;5087;42.662;23.466;2024-02-26T09:47:55;3.60;;;3.60;;
10096;SDS011;5087;42.662;23.466;2024-02-26T09:50:24;3.30;;;3.30;;
10096;SDS011;5087;42.662;23.466;2024-02-26T09:52:51;3.20;;;3.20;;
10096;SDS011;5087;42.662;23.466;2024-02-26T09:55:18;3.80;;;3.80;;
10096;SDS011;5087;42.662;23.466;2024-02-26T09:57:46;3.47;;;3.47;;
10096;SDS011;5087;42.662;23.466;2024-02-26T10:00:15;3.40;;;3.40;;
10096;SDS011;5087;42.662;23.466;2024-02-26T10:02:45;3.37;;;3.37;;
10096;SDS011;5087;42.662;23.466;2024-02-26T10:05:14;3.13;;;3.13;;
10096;SDS011;5087;42.662;23.466;2024-02-26T10:07:46;3.40;;;3.40;;
10096;SDS011;5087;42.662;23.466;2024-02-26T10:10:13;3.50;;;3.50;;
10096;SDS011;5087;42.662;23.466;2024-02-26T10:12:41;3.40;;;3.40;;
10096;SDS011;5087;42.662;23.466;2024-02-26T10:15:17;3.37;;;3.37;;
10096;SDS011;5087;42.662;23.466;2024-02-26T10:17:48;3.97;;;3.90;;
10096;SDS011;5087;42.662;23.466;2024-02-26T10:20:17;3.80;;;3.80;;
10096;SDS011;5087;42.662;23.466;2024-02-26T10:22:47;3.40;;;3.40;;
10096;SDS011;5087;42.662;23.466;2024-02-26T10:25:19;3.20;;;3.20;;
10096;SDS011;5087;42.662;23.466;2024-02-26T10:27:48;2.97;;;2.97;;
10096;SDS011;5087;42.662;23.466;2024-02-26T10:30:27;3.00;;;3.00;;
10096;SDS011;5087;42.662;23.466;2024-02-26T10:33:11;3.10;;;3.10;;
10096;SDS011;5087;42.662;23.466;2024-02-26T10:38:28;3.23;;;3.23;;
10096;SDS011;5087;42.662;23.466;2024-02-26T10:40:56;3.70;;;3.70;;
10096;SDS011;5087;42.662;23.466;2024-02-26T10:43:26;3.37;;;3.37;;
10096;SDS011;5087;42.662;23.466;2024-02-26T10:45:57;3.50;;;3.50;;
10096;SDS011;5087;42.662;23.466;2024-02-26T10:48:27;3.50;;;3.50;;
10096;SDS011;5087;42.662;23.466;2024-02-26T10:50:56;3.60;;;3.60;;
10096;SDS011;5087;42.662;23.466;2024-02-26T10:53:26;3.10;;;3.10;;
10096;SDS011;5087;42.662;23.466;2024-02-26T10:55:57;3.27;;;3.27;;
10096;SDS011;5087;42.662;23.466;2024-02-26T10:58:25;3.00;;;3.00;;
10096;SDS011;5087;42.662;23.466;2024-02-26T11:00:53;3.30;;;3.30;;
10096;SDS011;5087;42.662;23.466;2024-02-26T11:03:23;3.40;;;3.40;;
10096;SDS011;5087;42.662;23.466;2024-02-26T11:05:51;3.20;;;3.20;;
10096;SDS011;5087;42.662;23.466;2024-02-26T11:08:18;3.10;;;3.10;;
10096;SDS011;5087;42.662;23.466;2024-02-26T11:10:50;3.10;;;3.10;;
10096;SDS011;5087;42.662;23.466;2024-02-26T11:13:23;2.90;;;2.90;;
10096;SDS011;5087;42.662;23.466;2024-02-26T11:15:53;2.80;;;2.80;;
10096;SDS011;5087;42.662;23.466;2024-02-26T11:18:22;2.80;;;2.80;;
10096;SDS011;5087;42.662;23.466;2024-02-26T11:20:50;2.83;;;2.83;;
10096;SDS011;5087;42.662;23.466;2024-02-26T12:03:12;2.60;;;2.60;;
10096;SDS011;5087;42.662;23.466;2024-02-26T12:05:51;2.60;;;2.60;;
10096;SDS011;5087;42.662;23.466;2024-02-26T12:08:32;2.90;;;2.90;;
10096;SDS011;5087;42.662;23.466;2024-02-26T12:11:01;2.90;;;2.90;;
10096;SDS011;5087;42.662;23.466;2024-02-26T12:13:29;3.00;;;3.00;;
10096;SDS011;5087;42.662;23.466;2024-02-26T12:15:59;2.90;;;2.90;;
10096;SDS011;5087;42.662;23.466;2024-02-26T12:18:27;2.80;;;2.80;;
10096;SDS011;5087;42.662;23.466;2024-02-26T12:20:58;2.70;;;2.70;;
10096;SDS011;5087;42.662;23.466;2024-02-26T12:23:26;2.70;;;2.70;;
10096;SDS011;5087;42.662;23.466;2024-02-26T12:25:58;2.47;;;2.47;;
10096;SDS011;5087;42.662;23.466;2024-02-26T12:28:28;2.43;;;2.43;;
10096;SDS011;5087;42.662;23.466;2024-02-26T12:31:04;2.33;;;2.33;;
10096;SDS011;5087;42.662;23.466;2024-02-26T12:33:36;2.13;;;2.13;;
10096;SDS011;5087;42.662;23.466;2024-02-26T12:36:05;2.20;;;2.20;;
10096;SDS011;5087;42.662;23.466;2024-02-26T12:38:33;2.40;;;2.40;;
10096;SDS011;5087;42.662;23.466;2024-02-26T12:41:02;2.50;;;2.50;;
10096;SDS011;5087;42.662;23.466;2024-02-26T12:43:36;2.63;;;2.63;;
10096;SDS011;5087;42.662;23.466;2024-02-26T12:46:05;2.40;;;2.40;;
10096;SDS011;5087;42.662;23.466;2024-02-26T12:48:34;2.60;;;2.60;;
10096;SDS011;5087;42.662;23.466;2024-02-26T12:53:47;2.50;;;2.50;;
10096;SDS011;5087;42.662;23.466;2024-02-26T12:56:26;2.30;;;2.30;;
10096;SDS011;5087;42.662;23.466;2024-02-26T12:58:58;2.10;;;2.10;;
10096;SDS011;5087;42.662;23.466;2024-02-26T13:01:33;2.10;;;2.10;;
10096;SDS011;5087;42.662;23.466;2024-02-26T13:04:05;2.00;;;2.00;;
10096;SDS011;5087;42.662;23.466;2024-02-26T13:06:32;1.80;;;1.80;;
10096;SDS011;5087;42.662;23.466;2024-02-26T13:09:08;1.50;;;1.50;;
10096;SDS011;5087;42.662;23.466;2024-02-26T13:11:46;1.47;;;1.47;;
10096;SDS011;5087;42.662;23.466;2024-02-26T13:14:19;1.30;;;1.30;;
10096;SDS011;5087;42.662;23.466;2024-02-26T13:17:21;1.60;;;1.60;;
10096;SDS011;5087;42.662;23.466;2024-02-26T13:19:58;1.40;;;1.40;;
10096;SDS011;5087;42.662;23.466;2024-02-26T13:22:31;1.50;;;1.50;;
10096;SDS011;5087;42.662;23.466;2024-02-26T13:25:00;1.40;;;1.40;;
10096;SDS011;5087;42.662;23.466;2024-02-26T13:27:28;1.30;;;1.30;;
10096;SDS011;5087;42.662;23.466;2024-02-26T13:30:02;1.30;;;1.30;;
10096;SDS011;5087;42.662;23.466;2024-02-26T13:32:31;1.40;;;1.40;;
10096;SDS011;5087;42.662;23.466;2024-02-26T13:35:04;1.60;;;1.60;;
10096;SDS011;5087;42.662;23.466;2024-02-26T13:37:34;1.50;;;1.50;;
10096;SDS011;5087;42.662;23.466;2024-02-26T13:40:08;1.30;;;1.30;;
10096;SDS011;5087;42.662;23.466;2024-02-26T13:42:36;1.30;;;1.30;;
10096;SDS011;5087;42.662;23.466;2024-02-26T13:45:06;1.40;;;1.40;;
10096;SDS011;5087;42.662;23.466;2024-02-26T13:47:38;1.40;;;1.40;;
10096;SDS011;5087;42.662;23.466;2024-02-26T13:50:17;1.30;;;1.30;;
10096;SDS011;5087;42.662;23.466;2024-02-26T13:52:47;1.40;;;1.40;;
10096;SDS011;5087;42.662;23.466;2024-02-26T13:55:23;1.30;;;1.30;;
10096;SDS011;5087;42.662;23.466;2024-02-26T13:57:53;1.30;;;1.30;;
10096;SDS011;5087;42.662;23.466;2024-02-26T14:00:21;1.20;;;1.20;;
10096;SDS011;5087;42.662;23.466;2024-02-26T14:02:47;1.30;;;1.30;;
10096;SDS011;5087;42.662;23.466;2024-02-26T14:05:15;1.20;;;1.20;;
10096;SDS011;5087;42.662;23.466;2024-02-26T14:07:48;1.20;;;1.20;;
10096;SDS011;5087;42.662;23.466;2024-02-26T14:10:15;1.30;;;1.30;;
10096;SDS011;5087;42.662;23.466;2024-02-26T14:12:45;1.10;;;1.10;;
10096;SDS011;5087;42.662;23.466;2024-02-26T14:15:12;1.10;;;1.10;;
10096;SDS011;5087;42.662;23.466;2024-02-26T14:17:39;1.20;;;1.20;;
10096;SDS011;5087;42.662;23.466;2024-02-26T14:20:10;1.10;;;1.10;;
10096;SDS011;5087;42.662;23.466;2024-02-26T14:22:57;1.10;;;1.10;;
10096;SDS011;5087;42.662;23.466;2024-02-26T14:25:26;1.10;;;1.10;;
10096;SDS011;5087;42.662;23.466;2024-02-26T14:31:01;1.20;;;1.20;;
10096;SDS011;5087;42.662;23.466;2024-02-26T14:33:39;1.30;;;1.30;;
10096;SDS011;5087;42.662;23.466;2024-02-26T14:36:13;1.30;;;1.30;;
10096;SDS011;5087;42.662;23.466;2024-02-26T14:38:46;1.17;;;1.17;;
10096;SDS011;5087;42.662;23.466;2024-02-26T14:41:17;1.10;;;1.10;;
10096;SDS011;5087;42.662;23.466;2024-02-26T14:43:46;1.10;;;1.10;;
10096;SDS011;5087;42.662;23.466;2024-02-26T14:46:55;1.20;;;1.20;;
10096;SDS011;5087;42.662;23.466;2024-02-26T14:49:38;1.30;;;1.30;;
10096;SDS011;5087;42.662;23.466;2024-02-26T14:52:08;1.20;;;1.20;;
10096;SDS011;5087;42.662;23.466;2024-02-26T14:54:35;1.20;;;1.20;;
10096;SDS011;5087;42.662;23.466;2024-02-26T14:57:07;1.10;;;1.10;;
10096;SDS011;5087;42.662;23.466;2024-02-26T14:59:37;1.00;;;1.00;;
10096;SDS011;5087;42.662;23.466;2024-02-26T15:02:18;1.10;;;1.10;;
10096;SDS011;5087;42.662;23.466;2024-02-26T15:05:13;1.20;;;1.20;;
10096;SDS011;5087;42.662;23.466;2024-02-26T15:07:59;1.20;;;1.20;;
10096;SDS011;5087;42.662;23.466;2024-02-26T15:10:29;1.20;;;1.20;;
10096;SDS011;5087;42.662;23.466;2024-02-26T15:13:10;1.30;;;1.30;;
10096;SDS011;5087;42.662;23.466;2024-02-26T15:15:43;1.10;;;1.10;;
10096;SDS011;5087;42.662;23.466;2024-02-26T15:18:26;1.20;;;1.20;;
10096;SDS011;5087;42.662;23.466;2024-02-26T15:21:06;1.10;;;1.10;;
10096;SDS011;5087;42.662;23.466;2024-02-26T15:23:39;1.10;;;1.10;;
10096;SDS011;5087;42.662;23.466;2024-02-26T15:26:12;1.10;;;1.10;;
10096;SDS011;5087;42.662;23.466;2024-02-26T15:28:45;1.10;;;1.10;;
10096;SDS011;5087;42.662;23.466;2024-02-26T15:31:24;1.30;;;1.30;;
10096;SDS011;5087;42.662;23.466;2024-02-26T15:34:03;1.10;;;1.10;;
10096;SDS011;5087;42.662;23.466;2024-02-26T15:36:35;1.10;;;1.10;;
10096;SDS011;5087;42.662;23.466;2024-02-26T15:39:03;1.10;;;1.10;;
10096;SDS011;5087;42.662;23.466;2024-02-26T15:41:45;1.20;;;1.20;;
10096;SDS011;5087;42.662;23.466;2024-02-26T15:44:19;1.30;;;1.30;;
10096;SDS011;5087;42.662;23.466;2024-02-26T15:46:57;1.30;;;1.30;;
10096;SDS011;5087;42.662;23.466;2024-02-26T15:49:47;1.20;;;1.20;;
10096;SDS011;5087;42.662;23.466;2024-02-26T15:52:17;1.30;;;1.30;;